createdAt,value
2019-04-16T00:03:00.633Z,12.30
2019-04-16T00:07:43.214Z,12.20
2019-04-16T00:12:46.816Z,12.00
2019-04-16T00:17:22.594Z,11.60
2019-04-16T00:22:29.261Z,11.50
2019-04-16T00:27:05.153Z,11.40
2019-04-16T00:31:41.228Z,11.30
2019-04-16T00:36:18.114Z,11.20
2019-04-16T00:40:54.525Z,11.00
2019-04-16T00:45:30.269Z,10.90
2019-04-16T00:50:06.529Z,11.00
2019-04-16T00:54:43.206Z,10.90
2019-04-16T00:59:21.298Z,11.00
2019-04-16T01:03:56.480Z,11.00
2019-04-16T01:08:32.257Z,11.10
2019-04-16T01:13:08.021Z,11.00
2019-04-16T01:17:43.789Z,10.90
2019-04-16T01:22:19.544Z,10.90
2019-04-16T01:26:57.768Z,10.90
2019-04-16T01:31:53.224Z,10.90
2019-04-16T01:36:47.200Z,10.90
2019-04-16T01:41:22.960Z,10.80
2019-04-16T01:46:01.456Z,10.90
2019-04-16T01:50:36.181Z,10.90
2019-04-16T01:55:11.952Z,10.90
2019-04-16T01:59:47.699Z,10.90
2019-04-16T02:04:23.489Z,10.70
2019-04-16T02:09:02.787Z,10.60
2019-04-16T02:13:36.745Z,10.70
2019-04-16T02:18:12.514Z,10.80
2019-04-16T02:22:48.303Z,10.80
2019-04-16T02:27:26.265Z,10.70
2019-04-16T02:32:01.937Z,10.50
2019-04-16T02:36:37.773Z,10.40
2019-04-16T02:41:16.365Z,10.50
2019-04-16T02:45:56.770Z,10.50
2019-04-16T02:50:51.420Z,10.50
2019-04-16T02:56:01.479Z,10.40
2019-04-16T03:00:54.970Z,10.50
2019-04-16T03:05:42.502Z,10.40
2019-04-16T03:10:18.274Z,10.50
2019-04-16T03:14:54.089Z,10.40
2019-04-16T03:19:34.641Z,10.40
2019-04-16T03:24:10.416Z,10.30
2019-04-16T03:28:46.241Z,10.10
2019-04-16T03:33:22.053Z,10.10
2019-04-16T03:37:57.818Z,10.00
2019-04-16T03:42:33.661Z,9.90
2019-04-16T03:47:09.413Z,9.90
2019-04-16T03:51:45.209Z,9.90
2019-04-16T03:56:20.961Z,9.80
2019-04-16T04:00:56.737Z,9.80
2019-04-16T04:05:34.946Z,9.90
2019-04-16T04:10:10.404Z,9.90
2019-04-16T04:14:46.184Z,9.90
2019-04-16T04:19:21.959Z,9.80
2019-04-16T04:24:00.648Z,9.90
2019-04-16T04:28:35.409Z,9.70
2019-04-16T04:33:13.013Z,9.70
2019-04-16T04:37:48.848Z,9.70
2019-04-16T04:42:25.601Z,9.70
2019-04-16T04:47:02.045Z,9.80
2019-04-16T04:51:42.664Z,9.70
2019-04-16T04:56:15.262Z,9.70
2019-04-16T05:00:51.004Z,9.60
2019-04-16T05:05:47.097Z,9.80
2019-04-16T05:10:22.836Z,9.80
2019-04-16T05:14:58.928Z,9.90
2019-04-16T05:19:34.742Z,10.00
2019-04-16T05:24:10.507Z,10.00
2019-04-16T05:28:46.266Z,10.00
2019-04-16T05:33:22.092Z,10.00
2019-04-16T05:37:57.867Z,10.00
2019-04-16T05:42:33.675Z,10.00
2019-04-16T05:47:09.421Z,10.00
2019-04-16T05:51:45.196Z,9.90
2019-04-16T06:01:25.926Z,9.70
2019-04-16T06:06:01.677Z,9.70
2019-04-16T06:10:37.437Z,9.70
2019-04-16T06:15:27.049Z,9.60
2019-04-16T06:20:39.681Z,9.70
2019-04-16T06:25:31.768Z,9.80
2019-04-16T06:30:25.307Z,9.80
2019-04-16T06:35:20.264Z,9.70
2019-04-16T06:40:15.170Z,9.60
2019-04-16T06:44:55.843Z,9.60
2019-04-16T06:49:53.484Z,9.70
2019-04-16T06:54:48.181Z,9.60
2019-04-16T06:59:30.454Z,9.50
2019-04-16T07:04:29.516Z,9.60
2019-04-16T07:09:24.591Z,9.80
2019-04-16T07:13:57.989Z,10.20
2019-04-16T07:18:35.535Z,10.50
2019-04-16T07:23:11.214Z,10.70
2019-04-16T07:28:05.913Z,10.90
2019-04-16T07:32:53.684Z,11.10
2019-04-16T07:37:42.253Z,11.20
2019-04-16T07:42:51.856Z,11.40
2019-04-16T07:47:33.880Z,11.60
2019-04-16T07:52:46.833Z,11.70
2019-04-16T07:57:22.600Z,11.80
2019-04-16T08:01:58.398Z,11.90
2019-04-16T08:06:34.160Z,12.00
2019-04-16T08:11:09.933Z,12.10
2019-04-16T08:15:45.690Z,12.20
2019-04-16T08:20:21.474Z,12.50
2019-04-16T08:25:02.990Z,12.60
2019-04-16T08:29:37.186Z,12.80
2019-04-16T08:34:13.022Z,13.00
2019-04-16T08:38:48.797Z,13.10
2019-04-16T08:43:26.641Z,13.30
2019-04-16T08:48:02.197Z,13.40
2019-04-16T08:52:38.606Z,13.60
2019-04-16T08:57:15.532Z,13.80
2019-04-16T09:01:53.983Z,14.00
2019-04-16T09:06:28.807Z,14.30
2019-04-16T09:11:04.911Z,14.40
2019-04-16T09:15:40.749Z,14.50
2019-04-16T09:20:25.603Z,14.60
2019-04-16T09:25:13.891Z,14.70
2019-04-16T09:29:54.440Z,14.80
2019-04-16T09:34:49.127Z,14.90
2019-04-16T09:44:21.560Z,15.10
2019-04-16T09:48:57.326Z,15.10
2019-04-16T09:53:34.616Z,15.10
2019-04-16T09:58:17.234Z,15.20
2019-04-16T10:02:55.157Z,15.40
2019-04-16T10:07:30.656Z,15.50
2019-04-16T10:12:07.902Z,15.60
2019-04-16T10:16:43.899Z,15.60
2019-04-16T10:21:20.322Z,15.70
2019-04-16T10:25:56.232Z,15.80
2019-04-16T10:30:33.423Z,15.90
2019-04-16T10:35:09.244Z,16.00
2019-04-16T10:40:05.042Z,16.00
2019-04-16T10:44:58.712Z,16.10
2019-04-16T10:49:56.428Z,16.10
2019-04-16T10:54:51.204Z,16.20
2019-04-16T10:59:43.042Z,16.20
2019-04-16T11:04:43.362Z,16.30
2019-04-16T11:09:18.456Z,16.30
2019-04-16T11:14:00.164Z,16.40
2019-04-16T11:18:31.802Z,16.50
2019-04-16T11:23:08.138Z,16.50
2019-04-16T11:27:44.074Z,16.70
2019-04-16T11:32:22.286Z,16.80
2019-04-16T11:36:58.503Z,16.80
2019-04-16T11:46:09.664Z,16.80
2019-04-16T11:50:45.490Z,16.80
2019-04-16T11:55:21.335Z,16.80
2019-04-16T12:00:06.553Z,17.00
2019-04-16T12:04:43.901Z,17.00
2019-04-16T12:09:41.712Z,16.90
2019-04-16T12:14:32.245Z,16.90
2019-04-16T12:19:19.222Z,16.70
2019-04-16T12:24:18.655Z,16.70
2019-04-16T12:29:31.785Z,16.80
2019-04-16T12:34:14.077Z,17.00
2019-04-16T12:39:10.711Z,16.90
2019-04-16T12:43:55.016Z,17.10
2019-04-16T12:48:43.518Z,17.10
2019-04-16T12:53:36.288Z,17.30
2019-04-16T12:58:25.488Z,17.20
2019-04-16T13:03:18.704Z,17.20
2019-04-16T13:08:32.701Z,17.30
2019-04-16T13:13:22.036Z,17.10
2019-04-16T13:18:01.917Z,17.00
2019-04-16T13:22:41.734Z,16.90
2019-04-16T13:27:20.153Z,17.00
2019-04-16T13:31:55.932Z,17.00
2019-04-16T13:36:31.715Z,17.00
2019-04-16T13:41:07.594Z,17.10
2019-04-16T13:45:43.389Z,17.00
2019-04-16T13:50:26.092Z,17.00
2019-04-16T13:55:13.785Z,16.90
2019-04-16T14:00:13.841Z,16.90
2019-04-16T14:04:49.605Z,17.00
2019-04-16T14:09:25.382Z,17.20
2019-04-16T14:14:01.145Z,17.10
2019-04-16T14:18:36.931Z,17.10
2019-04-16T14:23:12.684Z,17.10
2019-04-16T14:27:48.478Z,17.00
2019-04-16T14:32:25.268Z,17.00
2019-04-16T14:37:01.359Z,16.90
2019-04-16T14:41:37.192Z,16.90
2019-04-16T14:46:12.994Z,17.00
2019-04-16T14:50:48.780Z,17.00
2019-04-16T14:55:34.431Z,17.10
2019-04-16T15:00:27.779Z,17.10
2019-04-16T15:05:07.993Z,17.10
2019-04-16T15:10:17.699Z,17.10
2019-04-16T15:14:57.710Z,17.00
2019-04-16T15:19:51.253Z,16.90
2019-04-16T15:24:39.757Z,16.80
2019-04-16T15:29:34.485Z,16.90
2019-04-16T15:34:19.452Z,16.70
2019-04-16T15:39:13.189Z,16.70
2019-04-16T15:44:06.275Z,16.70
2019-04-16T15:48:59.716Z,16.70
2019-04-16T15:53:50.525Z,16.60
2019-04-16T15:58:44.256Z,16.60
2019-04-16T16:03:38.961Z,16.70
2019-04-16T16:08:19.245Z,16.70
2019-04-16T16:12:55.184Z,16.60
2019-04-16T16:17:31.181Z,16.60
2019-04-16T16:22:11.084Z,16.60
2019-04-16T16:26:44.439Z,16.60
2019-04-16T16:31:20.209Z,16.70
2019-04-16T16:35:59.923Z,16.60
2019-04-16T16:40:35.581Z,16.60
2019-04-16T16:45:11.561Z,16.60
2019-04-16T16:49:47.321Z,16.60
2019-04-16T16:54:25.604Z,16.50
2019-04-16T16:59:09.755Z,16.40
2019-04-16T17:04:10.706Z,16.40
2019-04-16T17:08:46.528Z,16.30
2019-04-16T17:13:22.325Z,16.20
2019-04-16T17:17:58.110Z,16.20
2019-04-16T17:22:34.014Z,16.20
2019-04-16T17:27:09.833Z,16.20
2019-04-16T17:31:48.246Z,16.20
2019-04-16T17:36:24.073Z,16.10
2019-04-16T17:41:04.528Z,16.10
2019-04-16T17:45:51.292Z,16.00
2019-04-16T17:50:51.329Z,15.90
2019-04-16T17:55:49.011Z,15.80
2019-04-16T18:00:42.437Z,15.70
2019-04-16T18:05:29.493Z,15.70
2019-04-16T18:10:14.620Z,15.70
2019-04-16T18:15:24.308Z,15.60
2019-04-16T18:20:16.108Z,15.40
2019-04-16T18:24:59.093Z,15.20
2019-04-16T18:29:48.914Z,14.90
2019-04-16T18:34:49.840Z,14.70
2019-04-16T18:39:37.090Z,14.50
2019-04-16T18:44:35.491Z,14.50
2019-04-16T18:49:14.274Z,14.50
2019-04-16T18:53:51.428Z,14.50
2019-04-16T18:58:30.375Z,14.60
2019-04-16T19:03:14.576Z,14.70
2019-04-16T19:07:47.680Z,14.60
2019-04-16T19:12:24.681Z,14.60
2019-04-16T19:17:01.527Z,14.50
2019-04-16T19:21:42.396Z,14.50
2019-04-16T19:26:21.645Z,14.50
2019-04-16T19:30:58.748Z,14.30
2019-04-16T19:35:35.224Z,14.40
2019-04-16T19:40:11.676Z,14.40
2019-04-16T19:44:48.080Z,14.40
2019-04-16T19:49:25.017Z,14.10
2019-04-16T19:54:02.700Z,14.20
2019-04-16T19:58:39.143Z,14.10
2019-04-16T20:03:16.630Z,14.00
2019-04-16T20:07:53.219Z,14.10
2019-04-16T20:12:29.314Z,14.10
2019-04-16T20:17:05.419Z,14.10
2019-04-16T20:21:41.241Z,13.90
2019-04-16T20:26:17.102Z,13.50
2019-04-16T20:31:00.448Z,13.30
2019-04-16T20:35:30.378Z,13.30
2019-04-16T20:40:06.172Z,13.20
2019-04-16T20:44:41.957Z,13.10
2019-04-16T20:49:17.792Z,13.00
2019-04-16T20:53:53.608Z,13.00
2019-04-16T20:58:31.485Z,12.90
2019-04-16T21:03:21.594Z,12.90
2019-04-16T21:07:47.207Z,12.90
2019-04-16T21:12:22.964Z,12.90
2019-04-16T21:16:58.774Z,13.00
2019-04-16T21:21:37.933Z,12.90
2019-04-16T21:26:12.049Z,12.80
2019-04-16T21:30:50.166Z,12.70
2019-04-16T21:35:32.777Z,12.70
2019-04-16T21:40:08.949Z,12.50
2019-04-16T21:44:45.446Z,12.40
2019-04-16T21:49:21.284Z,12.30
2019-04-16T21:53:58.559Z,12.10
2019-04-16T21:58:34.600Z,12.10
2019-04-16T22:03:11.561Z,12.20
2019-04-16T22:07:47.353Z,12.10
2019-04-16T22:12:23.213Z,12.00
2019-04-16T22:16:59.945Z,11.60
2019-04-16T22:21:36.513Z,11.50
2019-04-16T22:26:12.359Z,11.40
2019-04-16T22:30:51.240Z,11.30
2019-04-16T22:35:25.616Z,11.40
2019-04-16T22:40:29.165Z,11.40
2019-04-16T22:45:23.081Z,11.50
2019-04-16T22:50:14.054Z,11.30
2019-04-16T22:54:36.332Z,11.40
2019-04-16T22:59:12.109Z,11.40
2019-04-16T23:03:49.759Z,11.20
2019-04-16T23:08:25.341Z,11.20
2019-04-16T23:13:01.588Z,11.10
2019-04-16T23:17:37.842Z,11.10
2019-04-16T23:22:15.275Z,11.00
2019-04-16T23:26:51.265Z,11.10
2019-04-16T23:31:27.060Z,11.20
2019-04-16T23:36:02.822Z,11.20
2019-04-16T23:40:40.685Z,11.20
2019-04-16T23:45:33.560Z,11.20
2019-04-16T23:50:44.734Z,11.40
2019-04-16T23:55:17.503Z,11.50
